F/V Le Natif 2 — FKVW — position and weather

sailwx.info

Track history (hours):
 
Tides and Currents Weather Stations Pressure Air Temp Water Temp Dewpoint Dewpoint Depression Visibility Wind Speed Wind Dir Waves Ship Positions

F/V Le Natif 2

Last reported at 2016-Dec-04 05:09 UTC. Time now 2016-Dec-04 06:10 UTC.
Position N 46°24' W 002°16'.

Length 16 m.

Type: Fishing. MMSI: 228131600.

Date/timePositionNaut miles runAvg speedWind from/ knotsBaromVisibWave heightAir tempDewpointWater temp
2016-Dec-04 05:09N 46°24' W 002°16'4 6.1
2016-Dec-04 04:33N 46°27' W 002°14'8 7.9
2016-Dec-04 03:33N 46°33' W 002°07'8 8.0
2016-Dec-04 02:33N 46°40' W 001°59'  
2016-Dec-01 02:28N 46°42' W 001°56'3 3.6
2016-Dec-01 01:33N 46°39' W 001°60'5 5.1
2016-Dec-01 00:33N 46°35' W 002°04'6 6.2
2016-Nov-30 23:33N 46°31' W 002°11'20 2.5
2016-Nov-30 15:33N 46°12' W 001°59'3 3.0
2016-Nov-30 14:24N 46°11' W 001°54'3 3.3
2016-Nov-30 13:33N 46°10' W 001°51'1 1.0
2016-Nov-30 12:33N 46°11' W 001°50'3 2.7
2016-Nov-30 11:33N 46°13' W 001°52'8 2.5
2016-Nov-30 08:31N 46°18' W 002°01'3 2.5
2016-Nov-30 07:28N 46°20' W 002°03'2 2.6
2016-Nov-30 06:33N 46°21' W 002°07'21 6.5
2016-Nov-30 03:17N 46°24' W 002°37'3 3.4
2016-Nov-30 02:29N 46°27' W 002°39'1 1.0
2016-Nov-30 01:30N 46°26' W 002°38'9 4.1
2016-Nov-29 23:18N 46°17' W 002°36'4 1.4
2016-Nov-29 20:13N 46°13' W 002°34'2 1.9
2016-Nov-29 19:11N 46°13' W 002°31'2 2.7
2016-Nov-29 18:19N 46°12' W 002°28'8 4.2
2016-Nov-29 16:18N 46°16' W 002°17'11 0.8
2016-Nov-29 03:25N 46°26' W 002°15'7 8.4
2016-Nov-29 02:33N 46°32' W 002°08'9 8.7
2016-Nov-29 01:33N 46°39' W 002°00'4 3.8
2016-Nov-29 00:33N 46°42' W 001°56'6 6.5
2016-Nov-28 23:33N 46°37' W 002°03'9 8.5
2016-Nov-28 22:33N 46°30' W 002°11'8 8.0
2016-Nov-28 21:31N 46°24' W 002°19'7 1.3
2016-Nov-28 16:26N 46°17' W 002°16'3 2.6
2016-Nov-28 15:13N 46°16' W 002°12'13 1.6
2016-Nov-28 07:12N 46°29' W 002°15'2 3.1
2016-Nov-28 06:26N 46°31' W 002°14'3 3.7
2016-Nov-28 05:30N 46°33' W 002°10'8 8.5
2016-Nov-28 04:32N 46°39' W 002°02'5 4.7
2016-Nov-28 03:33N 46°42' W 001°56'4 4.3
2016-Nov-28 02:33N 46°39' W 002°01'8 8.5
2016-Nov-28 01:33N 46°32' W 002°09'8 8.0
2016-Nov-28 00:33N 46°27' W 002°17'9 0.9
2016-Nov-27 14:33N 46°17' W 002°15'3 2.7
2016-Nov-27 13:24N 46°15' W 002°12'4 0.9
2016-Nov-27 08:30N 46°19' W 002°15'12 2.1
2016-Nov-27 02:33N 46°12' W 002°30'8 0.9
2016-Nov-26 18:31N 46°15' W 002°19'5 1.0
2016-Nov-26 13:33N 46°19' W 002°15'4 3.0
2016-Nov-26 12:12N 46°16' W 002°11'13 1.8
2016-Nov-26 05:09N 46°28' W 002°13'5 8.5
2016-Nov-26 04:32N 46°32' W 002°08'8 8.4
2016-Nov-26 03:33N 46°39' W 002°00'4 0.2
2016-Nov-25 04:33N 46°42' W 001°57'0 0.1
2016-Nov-25 03:33N 46°42' W 001°56'7 6.8
2016-Nov-25 02:33N 46°37' W 002°04'9 8.6
2016-Nov-25 01:33N 46°31' W 002°13'13 1.2
2016-Nov-24 14:33N 46°18' W 002°17'9 1.1
2016-Nov-24 06:12N 46°27' W 002°13'5 8.3
2016-Nov-24 05:33N 46°31' W 002°08'  
Track history (hours):
 
Tides and Currents Weather Stations Pressure Air Temp Water Temp Dewpoint Dewpoint Depression Visibility Wind Speed Wind Dir Waves Ship Positions

F/V Le Natif 2

Last reported at 2016-Dec-04 05:09 UTC. Time now 2016-Dec-04 06:10 UTC.
Position N 46°24' W 002°16'.

Length 16 m.

Type: Fishing. MMSI: 228131600.

Date/timePositionNaut miles runAvg speedWind from/ knotsBaromVisibWave heightAir tempDewpointWater temp
2016-Dec-04 05:09N 46°24' W 002°16'4 6.1
2016-Dec-04 04:33N 46°27' W 002°14'8 7.9
2016-Dec-04 03:33N 46°33' W 002°07'8 8.0
2016-Dec-04 02:33N 46°40' W 001°59'  
2016-Dec-01 02:28N 46°42' W 001°56'3 3.6
2016-Dec-01 01:33N 46°39' W 001°60'5 5.1
2016-Dec-01 00:33N 46°35' W 002°04'6 6.2
2016-Nov-30 23:33N 46°31' W 002°11'20 2.5
2016-Nov-30 15:33N 46°12' W 001°59'3 3.0
2016-Nov-30 14:24N 46°11' W 001°54'3 3.3
2016-Nov-30 13:33N 46°10' W 001°51'1 1.0
2016-Nov-30 12:33N 46°11' W 001°50'3 2.7
2016-Nov-30 11:33N 46°13' W 001°52'8 2.5
2016-Nov-30 08:31N 46°18' W 002°01'3 2.5
2016-Nov-30 07:28N 46°20' W 002°03'2 2.6
2016-Nov-30 06:33N 46°21' W 002°07'21 6.5
2016-Nov-30 03:17N 46°24' W 002°37'3 3.4
2016-Nov-30 02:29N 46°27' W 002°39'1 1.0
2016-Nov-30 01:30N 46°26' W 002°38'9 4.1
2016-Nov-29 23:18N 46°17' W 002°36'4 1.4
2016-Nov-29 20:13N 46°13' W 002°34'2 1.9
2016-Nov-29 19:11N 46°13' W 002°31'2 2.7
2016-Nov-29 18:19N 46°12' W 002°28'8 4.2
2016-Nov-29 16:18N 46°16' W 002°17'11 0.8
2016-Nov-29 03:25N 46°26' W 002°15'7 8.4
2016-Nov-29 02:33N 46°32' W 002°08'9 8.7
2016-Nov-29 01:33N 46°39' W 002°00'4 3.8
2016-Nov-29 00:33N 46°42' W 001°56'6 6.5
2016-Nov-28 23:33N 46°37' W 002°03'9 8.5
2016-Nov-28 22:33N 46°30' W 002°11'8 8.0
2016-Nov-28 21:31N 46°24' W 002°19'7 1.3
2016-Nov-28 16:26N 46°17' W 002°16'3 2.6
2016-Nov-28 15:13N 46°16' W 002°12'13 1.6
2016-Nov-28 07:12N 46°29' W 002°15'2 3.1
2016-Nov-28 06:26N 46°31' W 002°14'3 3.7
2016-Nov-28 05:30N 46°33' W 002°10'8 8.5
2016-Nov-28 04:32N 46°39' W 002°02'5 4.7
2016-Nov-28 03:33N 46°42' W 001°56'4 4.3
2016-Nov-28 02:33N 46°39' W 002°01'8 8.5
2016-Nov-28 01:33N 46°32' W 002°09'8 8.0
2016-Nov-28 00:33N 46°27' W 002°17'9 0.9
2016-Nov-27 14:33N 46°17' W 002°15'3 2.7
2016-Nov-27 13:24N 46°15' W 002°12'4 0.9
2016-Nov-27 08:30N 46°19' W 002°15'12 2.1
2016-Nov-27 02:33N 46°12' W 002°30'8 0.9
2016-Nov-26 18:31N 46°15' W 002°19'5 1.0
2016-Nov-26 13:33N 46°19' W 002°15'4 3.0
2016-Nov-26 12:12N 46°16' W 002°11'13 1.8
2016-Nov-26 05:09N 46°28' W 002°13'5 8.5
2016-Nov-26 04:32N 46°32' W 002°08'8 8.4
2016-Nov-26 03:33N 46°39' W 002°00'4 0.2
2016-Nov-25 04:33N 46°42' W 001°57'0 0.1
2016-Nov-25 03:33N 46°42' W 001°56'7 6.8
2016-Nov-25 02:33N 46°37' W 002°04'9 8.6
2016-Nov-25 01:33N 46°31' W 002°13'13 1.2
2016-Nov-24 14:33N 46°18' W 002°17'9 1.1
2016-Nov-24 06:12N 46°27' W 002°13'5 8.3
2016-Nov-24 05:33N 46°31' W 002°08'  

Dump ship's entire track history